sensor_id;sensor_type;location;lat;lon;timestamp;P1;durP1;ratioP1;P2;durP2;ratioP2
16804;SDS011;8520;50.102;20.010;2023-07-20T00:00:00;9.30;;;8.70;;
16804;SDS011;8520;50.102;20.010;2023-07-20T00:02:38;10.18;;;9.27;;
16804;SDS011;8520;50.102;20.010;2023-07-20T00:05:07;9.95;;;9.05;;
16804;SDS011;8520;50.102;20.010;2023-07-20T00:07:35;10.85;;;9.95;;
16804;SDS011;8520;50.102;20.010;2023-07-20T00:10:05;10.80;;;9.88;;
16804;SDS011;8520;50.102;20.010;2023-07-20T00:12:34;10.50;;;9.70;;
16804;SDS011;8520;50.102;20.010;2023-07-20T00:15:02;10.70;;;9.95;;
16804;SDS011;8520;50.102;20.010;2023-07-20T00:17:30;12.55;;;11.65;;
16804;SDS011;8520;50.102;20.010;2023-07-20T00:19:59;14.52;;;13.27;;
16804;SDS011;8520;50.102;20.010;2023-07-20T00:22:27;13.50;;;12.68;;
16804;SDS011;8520;50.102;20.010;2023-07-20T00:24:55;14.88;;;13.55;;
16804;SDS011;8520;50.102;20.010;2023-07-20T00:27:25;14.43;;;13.52;;
16804;SDS011;8520;50.102;20.010;2023-07-20T00:29:53;15.48;;;14.57;;
16804;SDS011;8520;50.102;20.010;2023-07-20T00:32:21;17.02;;;15.93;;
16804;SDS011;8520;50.102;20.010;2023-07-20T00:34:49;18.00;;;16.90;;
16804;SDS011;8520;50.102;20.010;2023-07-20T00:37:17;18.77;;;17.52;;
16804;SDS011;8520;50.102;20.010;2023-07-20T00:39:45;19.30;;;18.20;;
16804;SDS011;8520;50.102;20.010;2023-07-20T00:42:13;19.38;;;18.17;;
16804;SDS011;8520;50.102;20.010;2023-07-20T00:44:43;19.02;;;17.90;;
16804;SDS011;8520;50.102;20.010;2023-07-20T00:47:11;19.60;;;18.40;;
16804;SDS011;8520;50.102;20.010;2023-07-20T00:49:39;18.80;;;17.67;;
16804;SDS011;8520;50.102;20.010;2023-07-20T00:52:08;19.90;;;18.50;;
16804;SDS011;8520;50.102;20.010;2023-07-20T00:54:39;18.80;;;17.77;;
16804;SDS011;8520;50.102;20.010;2023-07-20T00:57:07;18.63;;;17.63;;
16804;SDS011;8520;50.102;20.010;2023-07-20T00:59:37;19.92;;;18.42;;
16804;SDS011;8520;50.102;20.010;2023-07-20T01:02:06;20.38;;;19.38;;
16804;SDS011;8520;50.102;20.010;2023-07-20T01:04:35;20.23;;;19.13;;
16804;SDS011;8520;50.102;20.010;2023-07-20T01:07:06;20.52;;;19.30;;
16804;SDS011;8520;50.102;20.010;2023-07-20T01:09:42;22.10;;;20.73;;
16804;SDS011;8520;50.102;20.010;2023-07-20T01:12:18;22.88;;;21.45;;
16804;SDS011;8520;50.102;20.010;2023-07-20T01:14:53;24.88;;;23.48;;
16804;SDS011;8520;50.102;20.010;2023-07-20T01:17:24;27.15;;;25.65;;
16804;SDS011;8520;50.102;20.010;2023-07-20T01:19:52;28.67;;;27.17;;
16804;SDS011;8520;50.102;20.010;2023-07-20T01:22:24;30.35;;;28.75;;
16804;SDS011;8520;50.102;20.010;2023-07-20T01:25:18;33.97;;;32.10;;
16804;SDS011;8520;50.102;20.010;2023-07-20T01:28:05;35.45;;;33.47;;
16804;SDS011;8520;50.102;20.010;2023-07-20T01:31:10;37.60;;;35.60;;
16804;SDS011;8520;50.102;20.010;2023-07-20T01:33:50;35.40;;;33.33;;
16804;SDS011;8520;50.102;20.010;2023-07-20T01:36:19;33.90;;;32.20;;
16804;SDS011;8520;50.102;20.010;2023-07-20T01:38:50;32.47;;;30.77;;
16804;SDS011;8520;50.102;20.010;2023-07-20T01:41:19;28.00;;;26.80;;
16804;SDS011;8520;50.102;20.010;2023-07-20T01:43:48;28.35;;;26.73;;
16804;SDS011;8520;50.102;20.010;2023-07-20T01:46:18;28.33;;;26.88;;
16804;SDS011;8520;50.102;20.010;2023-07-20T01:48:46;28.33;;;26.67;;
16804;SDS011;8520;50.102;20.010;2023-07-20T01:51:15;26.50;;;25.10;;
16804;SDS011;8520;50.102;20.010;2023-07-20T01:53:44;23.88;;;22.67;;
16804;SDS011;8520;50.102;20.010;2023-07-20T01:56:13;22.10;;;21.00;;
16804;SDS011;8520;50.102;20.010;2023-07-20T01:58:42;21.42;;;20.33;;
16804;SDS011;8520;50.102;20.010;2023-07-20T02:01:10;20.30;;;19.10;;
16804;SDS011;8520;50.102;20.010;2023-07-20T02:03:39;19.98;;;18.98;;
16804;SDS011;8520;50.102;20.010;2023-07-20T02:06:08;19.88;;;18.70;;
16804;SDS011;8520;50.102;20.010;2023-07-20T02:08:36;18.70;;;17.30;;
16804;SDS011;8520;50.102;20.010;2023-07-20T02:11:04;19.00;;;17.80;;
16804;SDS011;8520;50.102;20.010;2023-07-20T02:13:32;18.00;;;17.10;;
16804;SDS011;8520;50.102;20.010;2023-07-20T02:16:00;17.80;;;16.90;;
16804;SDS011;8520;50.102;20.010;2023-07-20T02:18:28;19.38;;;17.85;;
16804;SDS011;8520;50.102;20.010;2023-07-20T02:20:58;17.50;;;16.63;;
16804;SDS011;8520;50.102;20.010;2023-07-20T02:23:26;17.23;;;16.13;;
16804;SDS011;8520;50.102;20.010;2023-07-20T02:25:55;16.85;;;16.00;;
16804;SDS011;8520;50.102;20.010;2023-07-20T02:28:23;17.50;;;16.40;;
16804;SDS011;8520;50.102;20.010;2023-07-20T02:30:51;16.80;;;15.75;;
16804;SDS011;8520;50.102;20.010;2023-07-20T02:33:20;16.63;;;15.73;;
16804;SDS011;8520;50.102;20.010;2023-07-20T02:35:48;16.95;;;15.95;;
16804;SDS011;8520;50.102;20.010;2023-07-20T02:38:18;16.42;;;15.40;;
16804;SDS011;8520;50.102;20.010;2023-07-20T02:40:46;16.67;;;15.55;;
16804;SDS011;8520;50.102;20.010;2023-07-20T02:43:15;16.00;;;15.05;;
16804;SDS011;8520;50.102;20.010;2023-07-20T02:45:44;16.55;;;15.65;;
16804;SDS011;8520;50.102;20.010;2023-07-20T02:48:13;17.17;;;16.38;;
16804;SDS011;8520;50.102;20.010;2023-07-20T02:50:43;17.75;;;16.85;;
16804;SDS011;8520;50.102;20.010;2023-07-20T02:53:11;18.25;;;17.35;;
16804;SDS011;8520;50.102;20.010;2023-07-20T02:55:41;18.13;;;17.13;;
16804;SDS011;8520;50.102;20.010;2023-07-20T02:58:09;17.63;;;16.42;;
16804;SDS011;8520;50.102;20.010;2023-07-20T03:00:37;17.33;;;16.38;;
16804;SDS011;8520;50.102;20.010;2023-07-20T03:03:05;16.45;;;15.52;;
16804;SDS011;8520;50.102;20.010;2023-07-20T03:05:36;17.13;;;16.23;;
16804;SDS011;8520;50.102;20.010;2023-07-20T03:08:07;17.88;;;16.85;;
16804;SDS011;8520;50.102;20.010;2023-07-20T03:10:38;18.13;;;17.13;;
16804;SDS011;8520;50.102;20.010;2023-07-20T03:13:08;18.25;;;17.30;;
16804;SDS011;8520;50.102;20.010;2023-07-20T03:15:38;19.27;;;18.27;;
16804;SDS011;8520;50.102;20.010;2023-07-20T03:18:07;19.23;;;18.33;;
16804;SDS011;8520;50.102;20.010;2023-07-20T03:20:35;19.00;;;17.80;;
16804;SDS011;8520;50.102;20.010;2023-07-20T03:23:04;18.70;;;17.63;;
16804;SDS011;8520;50.102;20.010;2023-07-20T03:25:32;20.10;;;18.90;;
16804;SDS011;8520;50.102;20.010;2023-07-20T03:28:04;19.33;;;18.42;;
16804;SDS011;8520;50.102;20.010;2023-07-20T03:30:34;19.65;;;18.73;;
16804;SDS011;8520;50.102;20.010;2023-07-20T03:33:02;19.25;;;18.30;;
16804;SDS011;8520;50.102;20.010;2023-07-20T03:35:31;19.13;;;17.85;;
16804;SDS011;8520;50.102;20.010;2023-07-20T03:37:59;18.58;;;17.67;;
16804;SDS011;8520;50.102;20.010;2023-07-20T03:40:27;18.70;;;17.67;;
16804;SDS011;8520;50.102;20.010;2023-07-20T03:42:55;18.90;;;17.73;;
16804;SDS011;8520;50.102;20.010;2023-07-20T03:45:23;18.77;;;17.88;;
16804;SDS011;8520;50.102;20.010;2023-07-20T03:47:52;19.05;;;18.15;;
16804;SDS011;8520;50.102;20.010;2023-07-20T03:50:22;19.02;;;17.98;;
16804;SDS011;8520;50.102;20.010;2023-07-20T03:52:50;19.60;;;18.50;;
16804;SDS011;8520;50.102;20.010;2023-07-20T03:55:19;20.02;;;18.95;;
16804;SDS011;8520;50.102;20.010;2023-07-20T03:57:47;22.15;;;20.98;;
16804;SDS011;8520;50.102;20.010;2023-07-20T04:00:17;22.52;;;21.23;;
16804;SDS011;8520;50.102;20.010;2023-07-20T04:02:46;27.80;;;26.10;;
16804;SDS011;8520;50.102;20.010;2023-07-20T04:05:16;34.60;;;32.70;;
16804;SDS011;8520;50.102;20.010;2023-07-20T04:07:44;39.90;;;37.45;;
16804;SDS011;8520;50.102;20.010;2023-07-20T04:10:12;45.22;;;42.60;;
16804;SDS011;8520;50.102;20.010;2023-07-20T04:12:40;48.83;;;46.13;;
16804;SDS011;8520;50.102;20.010;2023-07-20T04:15:09;54.50;;;51.53;;
16804;SDS011;8520;50.102;20.010;2023-07-20T04:17:37;59.40;;;56.08;;
16804;SDS011;8520;50.102;20.010;2023-07-20T04:20:06;63.75;;;60.05;;
16804;SDS011;8520;50.102;20.010;2023-07-20T04:22:37;64.95;;;61.53;;
16804;SDS011;8520;50.102;20.010;2023-07-20T04:25:08;67.95;;;64.20;;
16804;SDS011;8520;50.102;20.010;2023-07-20T04:27:37;70.18;;;66.43;;
16804;SDS011;8520;50.102;20.010;2023-07-20T04:30:07;73.30;;;69.35;;
16804;SDS011;8520;50.102;20.010;2023-07-20T04:32:36;73.00;;;69.20;;
16804;SDS011;8520;50.102;20.010;2023-07-20T04:35:05;73.93;;;69.90;;
16804;SDS011;8520;50.102;20.010;2023-07-20T04:37:39;75.88;;;71.70;;
16804;SDS011;8520;50.102;20.010;2023-07-20T04:40:15;74.35;;;70.32;;
16804;SDS011;8520;50.102;20.010;2023-07-20T04:42:44;73.53;;;69.60;;
16804;SDS011;8520;50.102;20.010;2023-07-20T04:45:12;72.97;;;69.07;;
16804;SDS011;8520;50.102;20.010;2023-07-20T04:47:40;72.97;;;69.25;;
16804;SDS011;8520;50.102;20.010;2023-07-20T04:50:09;76.32;;;72.10;;
16804;SDS011;8520;50.102;20.010;2023-07-20T04:52:38;63.13;;;60.03;;
16804;SDS011;8520;50.102;20.010;2023-07-20T04:55:11;57.33;;;54.42;;
16804;SDS011;8520;50.102;20.010;2023-07-20T04:57:39;55.97;;;53.20;;
16804;SDS011;8520;50.102;20.010;2023-07-20T05:00:09;50.25;;;47.75;;
16804;SDS011;8520;50.102;20.010;2023-07-20T05:02:40;48.22;;;45.65;;
16804;SDS011;8520;50.102;20.010;2023-07-20T05:05:08;48.30;;;45.60;;
16804;SDS011;8520;50.102;20.010;2023-07-20T05:07:36;46.97;;;44.47;;
16804;SDS011;8520;50.102;20.010;2023-07-20T05:10:06;46.25;;;43.72;;
16804;SDS011;8520;50.102;20.010;2023-07-20T05:12:35;44.90;;;42.72;;
16804;SDS011;8520;50.102;20.010;2023-07-20T05:15:04;41.45;;;39.45;;
16804;SDS011;8520;50.102;20.010;2023-07-20T05:17:33;39.25;;;37.50;;
16804;SDS011;8520;50.102;20.010;2023-07-20T05:20:01;39.05;;;37.17;;
16804;SDS011;8520;50.102;20.010;2023-07-20T05:22:31;35.85;;;34.28;;
16804;SDS011;8520;50.102;20.010;2023-07-20T05:25:01;36.00;;;34.08;;
16804;SDS011;8520;50.102;20.010;2023-07-20T05:27:29;33.45;;;31.85;;
16804;SDS011;8520;50.102;20.010;2023-07-20T05:29:58;34.97;;;33.25;;
16804;SDS011;8520;50.102;20.010;2023-07-20T05:32:26;35.10;;;33.40;;
16804;SDS011;8520;50.102;20.010;2023-07-20T05:34:54;36.75;;;34.95;;
16804;SDS011;8520;50.102;20.010;2023-07-20T05:37:22;35.20;;;33.67;;
16804;SDS011;8520;50.102;20.010;2023-07-20T05:39:50;31.45;;;30.05;;
16804;SDS011;8520;50.102;20.010;2023-07-20T05:42:20;30.27;;;28.60;;
16804;SDS011;8520;50.102;20.010;2023-07-20T05:44:48;30.02;;;28.42;;
16804;SDS011;8520;50.102;20.010;2023-07-20T05:47:19;29.38;;;27.98;;
16804;SDS011;8520;50.102;20.010;2023-07-20T05:49:47;29.13;;;27.73;;
16804;SDS011;8520;50.102;20.010;2023-07-20T05:52:16;26.35;;;25.25;;
16804;SDS011;8520;50.102;20.010;2023-07-20T05:54:44;25.65;;;24.45;;
16804;SDS011;8520;50.102;20.010;2023-07-20T05:57:12;25.15;;;24.10;;
16804;SDS011;8520;50.102;20.010;2023-07-20T05:59:41;24.00;;;22.83;;
16804;SDS011;8520;50.102;20.010;2023-07-20T06:02:11;22.52;;;21.35;;
16804;SDS011;8520;50.102;20.010;2023-07-20T06:04:39;21.90;;;20.90;;
16804;SDS011;8520;50.102;20.010;2023-07-20T06:07:07;22.92;;;21.75;;
16804;SDS011;8520;50.102;20.010;2023-07-20T06:09:35;21.27;;;20.15;;
16804;SDS011;8520;50.102;20.010;2023-07-20T06:12:04;20.05;;;19.05;;
16804;SDS011;8520;50.102;20.010;2023-07-20T06:14:32;18.83;;;17.92;;
16804;SDS011;8520;50.102;20.010;2023-07-20T06:17:02;17.60;;;16.80;;
16804;SDS011;8520;50.102;20.010;2023-07-20T06:19:30;16.80;;;16.00;;
16804;SDS011;8520;50.102;20.010;2023-07-20T06:21:58;15.80;;;15.07;;
16804;SDS011;8520;50.102;20.010;2023-07-20T06:24:27;16.38;;;15.68;;
16804;SDS011;8520;50.102;20.010;2023-07-20T06:26:55;16.80;;;16.00;;
16804;SDS011;8520;50.102;20.010;2023-07-20T06:29:23;16.40;;;15.48;;
16804;SDS011;8520;50.102;20.010;2023-07-20T06:31:51;15.88;;;15.18;;
16804;SDS011;8520;50.102;20.010;2023-07-20T06:34:21;16.30;;;15.40;;
16804;SDS011;8520;50.102;20.010;2023-07-20T06:36:50;16.00;;;15.10;;
16804;SDS011;8520;50.102;20.010;2023-07-20T06:39:18;15.73;;;15.00;;
16804;SDS011;8520;50.102;20.010;2023-07-20T06:41:49;14.93;;;14.23;;
16804;SDS011;8520;50.102;20.010;2023-07-20T06:44:18;15.30;;;14.57;;
16804;SDS011;8520;50.102;20.010;2023-07-20T06:46:47;16.23;;;15.48;;
16804;SDS011;8520;50.102;20.010;2023-07-20T06:49:24;15.20;;;14.50;;
16804;SDS011;8520;50.102;20.010;2023-07-20T06:51:53;15.75;;;14.95;;
16804;SDS011;8520;50.102;20.010;2023-07-20T06:54:22;15.73;;;15.02;;
16804;SDS011;8520;50.102;20.010;2023-07-20T06:56:50;14.85;;;14.15;;
16804;SDS011;8520;50.102;20.010;2023-07-20T06:59:21;16.55;;;15.75;;
16804;SDS011;8520;50.102;20.010;2023-07-20T07:01:50;16.17;;;15.40;;
16804;SDS011;8520;50.102;20.010;2023-07-20T07:04:19;14.85;;;14.15;;
16804;SDS011;8520;50.102;20.010;2023-07-20T07:06:48;13.90;;;13.23;;
16804;SDS011;8520;50.102;20.010;2023-07-20T07:09:16;14.57;;;13.88;;
16804;SDS011;8520;50.102;20.010;2023-07-20T07:11:45;13.88;;;13.07;;
16804;SDS011;8520;50.102;20.010;2023-07-20T07:14:13;14.73;;;13.93;;
16804;SDS011;8520;50.102;20.010;2023-07-20T07:16:42;15.98;;;14.70;;
16804;SDS011;8520;50.102;20.010;2023-07-20T07:19:10;15.45;;;14.70;;
16804;SDS011;8520;50.102;20.010;2023-07-20T07:21:38;15.02;;;14.30;;
16804;SDS011;8520;50.102;20.010;2023-07-20T07:24:08;16.95;;;16.02;;
16804;SDS011;8520;50.102;20.010;2023-07-20T07:26:36;15.25;;;14.52;;
16804;SDS011;8520;50.102;20.010;2023-07-20T07:29:05;16.08;;;15.30;;
16804;SDS011;8520;50.102;20.010;2023-07-20T07:31:33;15.57;;;14.88;;
16804;SDS011;8520;50.102;20.010;2023-07-20T07:34:03;16.02;;;15.13;;
16804;SDS011;8520;50.102;20.010;2023-07-20T07:36:31;17.77;;;16.77;;
16804;SDS011;8520;50.102;20.010;2023-07-20T07:38:59;15.55;;;14.55;;
16804;SDS011;8520;50.102;20.010;2023-07-20T07:41:49;16.30;;;15.30;;
16804;SDS011;8520;50.102;20.010;2023-07-20T07:44:18;16.58;;;15.73;;
16804;SDS011;8520;50.102;20.010;2023-07-20T07:46:47;14.90;;;14.10;;
16804;SDS011;8520;50.102;20.010;2023-07-20T07:49:16;14.52;;;13.57;;
16804;SDS011;8520;50.102;20.010;2023-07-20T07:51:45;14.80;;;14.00;;
16804;SDS011;8520;50.102;20.010;2023-07-20T07:54:13;15.32;;;14.27;;
16804;SDS011;8520;50.102;20.010;2023-07-20T07:56:41;12.18;;;11.48;;
16804;SDS011;8520;50.102;20.010;2023-07-20T07:59:12;11.20;;;10.48;;
16804;SDS011;8520;50.102;20.010;2023-07-20T08:01:40;10.20;;;9.70;;
16804;SDS011;8520;50.102;20.010;2023-07-20T08:04:08;10.98;;;10.38;;
16804;SDS011;8520;50.102;20.010;2023-07-20T08:06:37;11.45;;;10.68;;
16804;SDS011;8520;50.102;20.010;2023-07-20T08:09:05;11.25;;;10.48;;
16804;SDS011;8520;50.102;20.010;2023-07-20T08:11:33;10.98;;;10.27;;
16804;SDS011;8520;50.102;20.010;2023-07-20T08:14:01;9.60;;;8.90;;
16804;SDS011;8520;50.102;20.010;2023-07-20T08:16:31;9.60;;;8.90;;
16804;SDS011;8520;50.102;20.010;2023-07-20T08:18:59;9.65;;;9.05;;
16804;SDS011;8520;50.102;20.010;2023-07-20T08:21:28;8.60;;;7.95;;
16804;SDS011;8520;50.102;20.010;2023-07-20T08:23:57;8.80;;;8.20;;
16804;SDS011;8520;50.102;20.010;2023-07-20T08:26:25;7.50;;;6.90;;
16804;SDS011;8520;50.102;20.010;2023-07-20T08:28:53;7.95;;;7.45;;
16804;SDS011;8520;50.102;20.010;2023-07-20T08:31:21;8.40;;;7.68;;
16804;SDS011;8520;50.102;20.010;2023-07-20T08:33:51;7.80;;;7.20;;
16804;SDS011;8520;50.102;20.010;2023-07-20T08:36:19;7.75;;;7.25;;
16804;SDS011;8520;50.102;20.010;2023-07-20T08:38:47;7.82;;;7.43;;
16804;SDS011;8520;50.102;20.010;2023-07-20T08:41:16;8.05;;;7.55;;
16804;SDS011;8520;50.102;20.010;2023-07-20T08:43:44;9.40;;;8.70;;
16804;SDS011;8520;50.102;20.010;2023-07-20T08:46:14;9.88;;;9.18;;
16804;SDS011;8520;50.102;20.010;2023-07-20T08:48:43;7.10;;;6.60;;
16804;SDS011;8520;50.102;20.010;2023-07-20T08:51:14;6.97;;;6.47;;
16804;SDS011;8520;50.102;20.010;2023-07-20T08:53:44;7.30;;;6.70;;
16804;SDS011;8520;50.102;20.010;2023-07-20T08:56:15;7.68;;;6.97;;
16804;SDS011;8520;50.102;20.010;2023-07-20T08:58:45;7.25;;;6.65;;
16804;SDS011;8520;50.102;20.010;2023-07-20T09:01:14;7.00;;;6.57;;
16804;SDS011;8520;50.102;20.010;2023-07-20T09:03:42;7.18;;;6.70;;
16804;SDS011;8520;50.102;20.010;2023-07-20T09:06:14;6.90;;;6.40;;
16804;SDS011;8520;50.102;20.010;2023-07-20T09:08:43;5.50;;;5.10;;
16804;SDS011;8520;50.102;20.010;2023-07-20T09:11:11;5.50;;;5.10;;
16804;SDS011;8520;50.102;20.010;2023-07-20T09:13:40;5.20;;;4.90;;
16804;SDS011;8520;50.102;20.010;2023-07-20T09:16:08;4.90;;;4.68;;
16804;SDS011;8520;50.102;20.010;2023-07-20T09:18:41;4.97;;;4.68;;
16804;SDS011;8520;50.102;20.010;2023-07-20T09:21:09;5.43;;;4.93;;
16804;SDS011;8520;50.102;20.010;2023-07-20T09:23:39;4.80;;;4.50;;
16804;SDS011;8520;50.102;20.010;2023-07-20T09:26:09;4.38;;;4.18;;
16804;SDS011;8520;50.102;20.010;2023-07-20T09:28:41;4.40;;;4.00;;
16804;SDS011;8520;50.102;20.010;2023-07-20T09:31:15;4.20;;;4.00;;
16804;SDS011;8520;50.102;20.010;2023-07-20T09:33:44;4.25;;;4.05;;
16804;SDS011;8520;50.102;20.010;2023-07-20T09:36:15;4.40;;;4.20;;
16804;SDS011;8520;50.102;20.010;2023-07-20T09:39:05;4.35;;;4.07;;
16804;SDS011;8520;50.102;20.010;2023-07-20T09:41:40;5.03;;;4.63;;
16804;SDS011;8520;50.102;20.010;2023-07-20T09:44:13;5.45;;;5.15;;
16804;SDS011;8520;50.102;20.010;2023-07-20T09:46:45;5.07;;;4.68;;
16804;SDS011;8520;50.102;20.010;2023-07-20T09:49:17;4.72;;;4.53;;
16804;SDS011;8520;50.102;20.010;2023-07-20T09:51:48;4.80;;;4.50;;
16804;SDS011;8520;50.102;20.010;2023-07-20T09:54:18;5.53;;;4.43;;
16804;SDS011;8520;50.102;20.010;2023-07-20T09:56:49;4.93;;;4.50;;
16804;SDS011;8520;50.102;20.010;2023-07-20T09:59:19;4.90;;;4.55;;
16804;SDS011;8520;50.102;20.010;2023-07-20T10:01:47;5.40;;;4.90;;
16804;SDS011;8520;50.102;20.010;2023-07-20T10:04:18;4.53;;;4.18;;
16804;SDS011;8520;50.102;20.010;2023-07-20T10:06:48;4.60;;;4.20;;
16804;SDS011;8520;50.102;20.010;2023-07-20T10:09:22;6.25;;;4.63;;
16804;SDS011;8520;50.102;20.010;2023-07-20T10:11:53;4.95;;;4.60;;
16804;SDS011;8520;50.102;20.010;2023-07-20T10:14:41;4.85;;;4.55;;
16804;SDS011;8520;50.102;20.010;2023-07-20T10:17:17;5.10;;;4.57;;
16804;SDS011;8520;50.102;20.010;2023-07-20T10:19:47;4.75;;;4.45;;
16804;SDS011;8520;50.102;20.010;2023-07-20T10:22:22;4.90;;;4.60;;
16804;SDS011;8520;50.102;20.010;2023-07-20T10:24:54;4.57;;;4.22;;
16804;SDS011;8520;50.102;20.010;2023-07-20T10:27:26;4.05;;;3.63;;
16804;SDS011;8520;50.102;20.010;2023-07-20T10:29:54;4.35;;;3.95;;
16804;SDS011;8520;50.102;20.010;2023-07-20T10:32:23;4.05;;;3.83;;
16804;SDS011;8520;50.102;20.010;2023-07-20T10:34:52;5.43;;;4.00;;
16804;SDS011;8520;50.102;20.010;2023-07-20T10:40:28;5.05;;;4.63;;
16804;SDS011;8520;50.102;20.010;2023-07-20T10:42:58;4.07;;;3.78;;
16804;SDS011;8520;50.102;20.010;2023-07-20T10:45:39;6.40;;;4.40;;
16804;SDS011;8520;50.102;20.010;2023-07-20T10:48:15;14.45;;;10.85;;
16804;SDS011;8520;50.102;20.010;2023-07-20T10:50:46;12.70;;;10.55;;
16804;SDS011;8520;50.102;20.010;2023-07-20T10:53:37;4.70;;;4.00;;
16804;SDS011;8520;50.102;20.010;2023-07-20T10:56:07;7.28;;;4.63;;
16804;SDS011;8520;50.102;20.010;2023-07-20T10:58:39;4.38;;;4.07;;
16804;SDS011;8520;50.102;20.010;2023-07-20T11:01:09;4.88;;;4.60;;
16804;SDS011;8520;50.102;20.010;2023-07-20T11:03:42;5.28;;;4.85;;
16804;SDS011;8520;50.102;20.010;2023-07-20T11:06:31;6.60;;;5.93;;
16804;SDS011;8520;50.102;20.010;2023-07-20T11:09:05;5.40;;;5.00;;
16804;SDS011;8520;50.102;20.010;2023-07-20T11:11:39;5.45;;;4.80;;
16804;SDS011;8520;50.102;20.010;2023-07-20T11:14:08;5.28;;;4.93;;
16804;SDS011;8520;50.102;20.010;2023-07-20T11:16:38;5.85;;;5.28;;
16804;SDS011;8520;50.102;20.010;2023-07-20T11:19:13;5.38;;;5.07;;
16804;SDS011;8520;50.102;20.010;2023-07-20T11:21:49;5.82;;;5.40;;
16804;SDS011;8520;50.102;20.010;2023-07-20T11:24:28;7.80;;;7.13;;
16804;SDS011;8520;50.102;20.010;2023-07-20T11:26:58;6.32;;;5.93;;
16804;SDS011;8520;50.102;20.010;2023-07-20T11:29:26;6.25;;;5.85;;
16804;SDS011;8520;50.102;20.010;2023-07-20T11:31:58;6.90;;;6.47;;
16804;SDS011;8520;50.102;20.010;2023-07-20T11:34:29;6.55;;;6.05;;
16804;SDS011;8520;50.102;20.010;2023-07-20T11:36:58;6.65;;;6.03;;
16804;SDS011;8520;50.102;20.010;2023-07-20T11:39:29;6.95;;;6.35;;
16804;SDS011;8520;50.102;20.010;2023-07-20T11:41:59;6.85;;;6.05;;
16804;SDS011;8520;50.102;20.010;2023-07-20T11:44:28;9.07;;;8.27;;
16804;SDS011;8520;50.102;20.010;2023-07-20T11:47:00;6.97;;;6.47;;
16804;SDS011;8520;50.102;20.010;2023-07-20T11:49:30;6.35;;;5.85;;
16804;SDS011;8520;50.102;20.010;2023-07-20T11:52:02;6.55;;;6.15;;
16804;SDS011;8520;50.102;20.010;2023-07-20T11:54:31;6.90;;;6.30;;
16804;SDS011;8520;50.102;20.010;2023-07-20T11:57:02;6.40;;;6.07;;
16804;SDS011;8520;50.102;20.010;2023-07-20T11:59:31;6.80;;;6.20;;
16804;SDS011;8520;50.102;20.010;2023-07-20T12:02:00;6.72;;;6.30;;
16804;SDS011;8520;50.102;20.010;2023-07-20T12:04:30;6.80;;;6.30;;
16804;SDS011;8520;50.102;20.010;2023-07-20T12:06:59;7.00;;;5.90;;
16804;SDS011;8520;50.102;20.010;2023-07-20T12:09:27;6.35;;;5.70;;
16804;SDS011;8520;50.102;20.010;2023-07-20T12:12:13;5.57;;;5.18;;
16804;SDS011;8520;50.102;20.010;2023-07-20T12:14:41;6.20;;;5.80;;
16804;SDS011;8520;50.102;20.010;2023-07-20T12:17:09;7.40;;;6.03;;
16804;SDS011;8520;50.102;20.010;2023-07-20T12:19:38;6.15;;;5.70;;
16804;SDS011;8520;50.102;20.010;2023-07-20T12:22:06;5.90;;;5.50;;
16804;SDS011;8520;50.102;20.010;2023-07-20T12:24:35;5.00;;;4.70;;
16804;SDS011;8520;50.102;20.010;2023-07-20T12:27:04;5.38;;;5.00;;
16804;SDS011;8520;50.102;20.010;2023-07-20T12:29:34;5.72;;;5.15;;
16804;SDS011;8520;50.102;20.010;2023-07-20T12:32:03;5.50;;;5.00;;
16804;SDS011;8520;50.102;20.010;2023-07-20T12:34:33;6.30;;;5.70;;
16804;SDS011;8520;50.102;20.010;2023-07-20T12:37:03;6.28;;;5.53;;
16804;SDS011;8520;50.102;20.010;2023-07-20T12:39:33;6.57;;;5.45;;
16804;SDS011;8520;50.102;20.010;2023-07-20T12:42:01;6.07;;;5.50;;
16804;SDS011;8520;50.102;20.010;2023-07-20T12:44:30;5.32;;;4.93;;
16804;SDS011;8520;50.102;20.010;2023-07-20T12:46:59;5.20;;;4.78;;
16804;SDS011;8520;50.102;20.010;2023-07-20T12:49:27;4.82;;;4.53;;
16804;SDS011;8520;50.102;20.010;2023-07-20T12:51:56;4.68;;;4.40;;
16804;SDS011;8520;50.102;20.010;2023-07-20T12:54:24;3.90;;;3.67;;
16804;SDS011;8520;50.102;20.010;2023-07-20T12:56:53;5.03;;;4.72;;
16804;SDS011;8520;50.102;20.010;2023-07-20T12:59:24;4.60;;;4.30;;
16804;SDS011;8520;50.102;20.010;2023-07-20T13:01:52;5.07;;;4.68;;
16804;SDS011;8520;50.102;20.010;2023-07-20T13:04:22;4.72;;;4.53;;
16804;SDS011;8520;50.102;20.010;2023-07-20T13:06:50;5.72;;;4.78;;
16804;SDS011;8520;50.102;20.010;2023-07-20T13:09:18;5.60;;;5.30;;
16804;SDS011;8520;50.102;20.010;2023-07-20T13:11:47;4.60;;;4.20;;
16804;SDS011;8520;50.102;20.010;2023-07-20T13:14:15;5.65;;;5.15;;
16804;SDS011;8520;50.102;20.010;2023-07-20T13:16:43;4.78;;;4.55;;
16804;SDS011;8520;50.102;20.010;2023-07-20T13:19:11;5.03;;;4.63;;
16804;SDS011;8520;50.102;20.010;2023-07-20T13:21:41;5.43;;;4.93;;
16804;SDS011;8520;50.102;20.010;2023-07-20T13:24:09;4.13;;;3.70;;
16804;SDS011;8520;50.102;20.010;2023-07-20T13:26:37;3.90;;;3.70;;
16804;SDS011;8520;50.102;20.010;2023-07-20T13:29:05;5.90;;;4.07;;
16804;SDS011;8520;50.102;20.010;2023-07-20T13:31:33;4.78;;;4.47;;
16804;SDS011;8520;50.102;20.010;2023-07-20T13:34:02;4.43;;;4.22;;
16804;SDS011;8520;50.102;20.010;2023-07-20T13:36:33;4.70;;;4.30;;
16804;SDS011;8520;50.102;20.010;2023-07-20T13:39:03;5.95;;;4.72;;
16804;SDS011;8520;50.102;20.010;2023-07-20T13:41:32;4.72;;;4.53;;
16804;SDS011;8520;50.102;20.010;2023-07-20T13:44:01;4.85;;;4.45;;
16804;SDS011;8520;50.102;20.010;2023-07-20T13:46:32;4.85;;;4.57;;
16804;SDS011;8520;50.102;20.010;2023-07-20T13:49:03;5.95;;;4.70;;
16804;SDS011;8520;50.102;20.010;2023-07-20T13:51:39;4.70;;;4.40;;
16804;SDS011;8520;50.102;20.010;2023-07-20T13:54:09;5.13;;;4.72;;
16804;SDS011;8520;50.102;20.010;2023-07-20T13:56:41;4.70;;;4.50;;
16804;SDS011;8520;50.102;20.010;2023-07-20T13:59:09;5.35;;;4.85;;
16804;SDS011;8520;50.102;20.010;2023-07-20T14:01:37;5.05;;;4.63;;
16804;SDS011;8520;50.102;20.010;2023-07-20T14:04:06;5.80;;;5.10;;
16804;SDS011;8520;50.102;20.010;2023-07-20T14:06:34;5.13;;;4.72;;
16804;SDS011;8520;50.102;20.010;2023-07-20T14:09:03;4.32;;;3.92;;
16804;SDS011;8520;50.102;20.010;2023-07-20T14:11:33;5.47;;;5.03;;
16804;SDS011;8520;50.102;20.010;2023-07-20T14:14:04;4.22;;;3.90;;
16804;SDS011;8520;50.102;20.010;2023-07-20T14:16:32;3.90;;;3.60;;
16804;SDS011;8520;50.102;20.010;2023-07-20T14:19:00;4.00;;;3.70;;
16804;SDS011;8520;50.102;20.010;2023-07-20T14:21:30;4.28;;;3.97;;
16804;SDS011;8520;50.102;20.010;2023-07-20T14:23:58;4.40;;;4.10;;
16804;SDS011;8520;50.102;20.010;2023-07-20T14:26:27;3.80;;;3.50;;
16804;SDS011;8520;50.102;20.010;2023-07-20T14:29:00;3.70;;;3.10;;
16804;SDS011;8520;50.102;20.010;2023-07-20T14:31:28;3.47;;;3.17;;
16804;SDS011;8520;50.102;20.010;2023-07-20T14:33:58;4.18;;;2.90;;
16804;SDS011;8520;50.102;20.010;2023-07-20T14:36:26;4.22;;;3.92;;
16804;SDS011;8520;50.102;20.010;2023-07-20T14:38:55;4.25;;;3.97;;
16804;SDS011;8520;50.102;20.010;2023-07-20T14:41:24;4.13;;;3.75;;
16804;SDS011;8520;50.102;20.010;2023-07-20T14:43:52;3.90;;;3.40;;
16804;SDS011;8520;50.102;20.010;2023-07-20T14:46:22;3.40;;;3.20;;
16804;SDS011;8520;50.102;20.010;2023-07-20T14:48:50;3.65;;;3.50;;
16804;SDS011;8520;50.102;20.010;2023-07-20T14:51:19;3.40;;;3.20;;